Time;durP1;ratioP1;P1;durP2;ratioP2;P2;SDS_P1;SDS_P2;PMS_P1;PMS_P2;Temp;Humidity;BMP_temperature;BMP_pressure;BME280_temperature;BME280_humidity;BME280_pressure;Samples;Min_cycle;Max_cycle;Signal;HPM_P1;HPM_P2
2021/11/29 00:01:07;;;;;;;0.10;0.10;;;;;;;5.61;66.98;100548.94;5008119;28;20543;-96
2021/11/29 00:03:33;;;;;;;;;;;;;;;5.66;66.55;100555.03;5005857;28;20038;-95
2021/11/29 00:06:00;;;;;;;0.10;0.10;;;;;;;5.44;67.09;100564.75;5004920;28;19944;-95
2021/11/29 00:08:26;;;;;;;0.10;0.10;;;;;;;5.38;67.16;100564.78;5002290;28;20034;-94
2021/11/29 00:10:53;;;;;;;0.20;0.20;;;;;;;5.34;67.42;100579.69;5007926;28;20030;-89
2021/11/29 00:13:20;;;;;;;0.17;0.17;;;;;;;5.31;67.46;100585.81;4993988;28;20078;-86
2021/11/29 00:15:46;;;;;;;0.10;0.10;;;;;;;5.33;67.38;100599.81;4987878;28;20034;-89
2021/11/29 00:18:12;;;;;;;0.10;0.10;;;;;;;5.30;67.89;100598.97;4986727;28;20037;-88
2021/11/29 00:20:42;;;;;;;0.20;0.20;;;;;;;5.35;67.47;100581.44;4990782;28;20093;-90
2021/11/29 00:23:09;;;;;;;0.20;0.20;;;;;;;5.38;67.12;100578.78;4988660;28;20122;-90
2021/11/29 00:25:35;;;;;;;0.20;0.20;;;;;;;5.35;67.08;100570.91;4985815;28;20046;-89
2021/11/29 00:28:02;;;;;;;0.20;0.20;;;;;;;5.24;67.27;100578.81;4989956;28;20207;-90
2021/11/29 00:30:28;;;;;;;0.20;0.20;;;;;;;5.14;67.19;100577.97;4984754;28;20035;-88
2021/11/29 00:32:54;;;;;;;0.20;0.20;;;;;;;5.15;67.00;100576.22;4987091;28;20382;-89
2021/11/29 00:35:20;;;;;;;0.20;0.20;;;;;;;5.11;67.44;100577.09;4985934;28;20125;-90
2021/11/29 00:37:49;;;;;;;0.10;0.10;;;;;;;5.11;67.58;100580.59;4990227;28;20544;-90
2021/11/29 00:40:15;;;;;;;0.15;0.15;;;;;;;5.04;67.44;100592.00;4986517;28;20030;-89
2021/11/29 00:42:42;;;;;;;0.10;0.10;;;;;;;5.04;67.81;100593.75;4986558;28;20038;-87
2021/11/29 00:45:09;;;;;;;0.17;0.17;;;;;;;5.07;67.88;100606.88;4994467;28;20092;-88
2021/11/29 00:47:36;;;;;;;0.20;0.20;;;;;;;5.09;68.03;100619.13;4980866;28;20423;-91
2021/11/29 00:50:04;;;;;;;0.20;0.20;;;;;;;5.11;68.20;100630.50;4984695;28;20034;-90
2021/11/29 00:52:30;;;;;;;0.20;0.20;;;;;;;5.16;68.09;100633.13;4983402;28;20031;-90
2021/11/29 00:54:57;;;;;;;0.20;0.20;;;;;;;5.16;68.29;100643.66;4982926;28;20122;-89
2021/11/29 00:57:23;;;;;;;0.20;0.20;;;;;;;5.17;67.72;100648.88;4979918;28;20030;-89
2021/11/29 00:59:49;;;;;;;0.20;0.20;;;;;;;5.15;67.96;100655.88;4976049;28;20030;-84
2021/11/29 01:02:16;;;;;;;0.10;0.10;;;;;;;5.14;68.34;100666.41;4982542;28;20034;-87
2021/11/29 01:04:43;;;;;;;0.20;0.20;;;;;;;5.08;68.27;100661.16;4978366;28;20019;-89
2021/11/29 01:07:10;;;;;;;0.10;0.10;;;;;;;5.03;68.43;100648.00;4974954;28;20090;-88
2021/11/29 01:09:37;;;;;;;0.20;0.20;;;;;;;5.00;67.85;100638.38;4978272;28;20394;-90
2021/11/29 01:12:04;;;;;;;0.10;0.10;;;;;;;4.86;67.96;100630.50;4980494;28;20069;-90
2021/11/29 01:14:31;;;;;;;0.15;0.15;;;;;;;4.84;67.71;100627.00;4979558;28;20023;-89
2021/11/29 01:16:57;;;;;;;0.40;0.40;;;;;;;4.85;67.82;100638.41;4978048;28;20549;-92
2021/11/29 01:19:23;;;;;;;0.10;0.10;;;;;;;4.84;68.49;100627.00;4977793;28;20076;-91
2021/11/29 01:21:49;;;;;;;0.20;0.20;;;;;;;4.85;68.44;100618.25;4975763;28;20077;-90
2021/11/29 01:24:16;;;;;;;0.15;0.15;;;;;;;4.82;68.58;100620.00;4975680;28;20505;-88
2021/11/29 01:26:42;;;;;;;0.20;0.20;;;;;;;4.85;68.10;100618.25;4979727;28;20062;-89
2021/11/29 01:29:08;;;;;;;0.20;0.20;;;;;;;4.79;68.46;100612.16;4977695;28;20019;-89
2021/11/29 01:31:34;;;;;;;0.20;0.20;;;;;;;4.78;68.50;100608.63;4982150;28;20482;-92
2021/11/29 01:34:01;;;;;;;0.20;0.20;;;;;;;4.73;68.48;100610.38;4976825;28;20034;-87
2021/11/29 01:36:27;;;;;;;0.10;0.10;;;;;;;4.72;68.63;100606.00;4980031;28;20030;-89
2021/11/29 01:38:53;;;;;;;0.10;0.10;;;;;;;4.66;68.25;100611.25;4975617;28;20031;-86
2021/11/29 01:41:20;;;;;;;0.20;0.20;;;;;;;4.64;68.47;100618.25;4978856;28;20033;-89
2021/11/29 01:43:48;;;;;;;0.10;0.10;;;;;;;4.61;68.65;100613.88;4976625;28;20027;-89
2021/11/29 01:46:16;;;;;;;0.20;0.20;;;;;;;4.61;69.08;100620.88;4979209;28;20041;-90
2021/11/29 01:48:43;;;;;;;0.95;0.95;;;;;;;4.63;68.80;100637.50;4975895;28;20393;-88
2021/11/29 01:51:11;;;;;;;0.20;0.20;;;;;;;4.61;68.83;100644.47;4981887;28;20027;-91
2021/11/29 01:53:38;;;;;;;0.20;0.20;;;;;;;4.60;69.06;100658.47;4978185;28;20030;-88
2021/11/29 01:56:04;;;;;;;0.10;0.10;;;;;;;4.59;69.39;100668.09;4980805;28;20102;-91
2021/11/29 01:58:33;;;;;;;0.10;0.10;;;;;;;4.63;69.70;100676.88;4982035;28;20089;-90
2021/11/29 02:01:14;;;;;;;0.10;0.10;;;;;;;4.56;69.69;100669.84;4976654;28;20019;-84
2021/11/29 02:03:45;;;;;;;0.10;0.10;;;;;;;4.54;69.04;100636.59;4975437;28;20486;-84
2021/11/29 02:06:12;;;;;;;0.20;0.20;;;;;;;4.58;68.75;100608.63;4979180;28;20031;-85
2021/11/29 02:08:40;;;;;;;0.20;0.20;;;;;;;4.68;67.95;100609.50;4981496;28;20041;-84
2021/11/29 02:11:25;;;;;;;0.20;0.20;;;;;;;4.78;67.22;100616.50;4981430;28;20051;-83
2021/11/29 02:13:56;;;;;;;0.10;0.10;;;;;;;4.80;67.68;100620.00;4982656;28;20037;-91
2021/11/29 02:16:22;;;;;;;0.20;0.20;;;;;;;4.74;67.57;100624.41;4979583;28;20038;-88
2021/11/29 02:18:49;;;;;;;0.20;0.20;;;;;;;4.76;67.74;100620.91;4979823;28;20119;-84
2021/11/29 02:21:19;;;;;;;0.20;0.20;;;;;;;4.81;67.48;100634.00;4977482;28;20033;-83
2021/11/29 02:23:49;;;;;;;0.20;0.20;;;;;;;4.75;68.29;100632.25;4964456;28;20038;-90
2021/11/29 02:26:17;;;;;;;0.10;0.10;;;;;;;4.80;68.43;100641.00;4977932;28;20121;-92
2021/11/29 02:28:46;;;;;;;0.10;0.10;;;;;;;4.78;68.21;100637.50;4976543;28;20050;-93
2021/11/29 02:31:20;;;;;;;0.20;0.20;;;;;;;4.76;68.88;100635.75;4976224;28;20117;-93
2021/11/29 02:33:47;;;;;;;0.20;0.20;;;;;;;4.69;68.91;100641.00;4977151;28;20027;-90
2021/11/29 02:36:13;;;;;;;0.20;0.20;;;;;;;4.61;68.84;100639.22;4978656;28;20074;-91
2021/11/29 02:38:39;;;;;;;0.20;0.20;;;;;;;4.65;68.74;100625.28;4988125;28;20177;-91
2021/11/29 02:41:06;;;;;;;0.10;0.10;;;;;;;4.62;68.62;100627.88;4987563;28;20042;-91
2021/11/29 02:43:33;;;;;;;0.17;0.17;;;;;;;4.49;68.56;100622.59;4979588;28;20038;-90
2021/11/29 02:46:02;;;;;;;0.10;0.10;;;;;;;4.54;68.87;100627.88;4974601;28;20526;-91
2021/11/29 02:48:46;;;;;;;0.20;0.20;;;;;;;4.48;69.06;100617.38;4979264;28;20084;-89
2021/11/29 02:54:12;;;;;;;0.20;0.20;;;;;;;4.36;68.42;100612.97;5074597;27;20427;-90
2021/11/29 02:56:42;;;;;;;0.20;0.20;;;;;;;4.30;68.78;100626.06;5047801;28;20033;-88
2021/11/29 02:59:17;;;;;;;0.20;0.20;;;;;;;4.24;68.97;100615.56;5031865;28;20041;-87
2021/11/29 03:01:45;;;;;;;0.20;0.20;;;;;;;4.26;68.36;100619.06;5031472;28;20040;-89
2021/11/29 03:04:11;;;;;;;0.10;0.10;;;;;;;4.11;69.14;100618.16;5034522;28;20124;-90
2021/11/29 03:06:38;;;;;;;0.20;0.20;;;;;;;4.15;68.90;100619.91;5038413;28;20045;-91
2021/11/29 03:09:06;;;;;;;0.17;0.17;;;;;;;4.10;69.45;100634.78;5031876;28;20044;-86
2021/11/29 03:11:39;;;;;;;0.20;0.20;;;;;;;4.20;69.27;100644.41;5034300;28;20034;-84
2021/11/29 03:14:19;;;;;;;0.10;0.10;;;;;;;4.25;69.50;100661.91;5032131;28;20038;-83
2021/11/29 03:16:53;;;;;;;0.10;0.10;;;;;;;4.33;69.24;100665.44;5036857;28;20025;-91
2021/11/29 03:19:20;;;;;;;0.20;0.20;;;;;;;4.39;69.47;100670.69;5038730;28;20556;-90
2021/11/29 03:21:47;;;;;;;0.20;0.20;;;;;;;4.43;69.73;100664.56;5032943;28;20026;-90
2021/11/29 03:24:13;;;;;;;0.20;0.20;;;;;;;4.49;69.53;100666.34;5035183;28;20036;-90
2021/11/29 03:26:40;;;;;;;0.20;0.20;;;;;;;4.50;69.53;100668.97;5033094;28;20060;-92
2021/11/29 03:29:09;;;;;;;0.17;0.17;;;;;;;4.54;69.43;100673.34;5035773;28;20063;-92
2021/11/29 03:31:36;;;;;;;0.30;0.30;;;;;;;4.54;69.49;100681.22;5033796;28;20057;-90
2021/11/29 03:34:06;;;;;;;0.10;0.10;;;;;;;4.56;69.49;100682.97;5034934;28;20032;-90
2021/11/29 03:36:35;;;;;;;0.20;0.20;;;;;;;4.58;69.43;100681.22;5035784;28;20422;-92
2021/11/29 03:39:07;;;;;;;0.10;0.10;;;;;;;4.62;69.62;100677.72;5031956;28;20141;-86
2021/11/29 03:41:33;;;;;;;0.20;0.20;;;;;;;4.64;69.26;100671.59;5031358;28;20053;-91
2021/11/29 03:44:00;;;;;;;0.10;0.10;;;;;;;4.66;69.29;100662.00;5028967;28;20029;-92
2021/11/29 03:46:26;;;;;;;0.20;0.20;;;;;;;4.70;69.35;100668.13;5032850;28;20032;-92
2021/11/29 03:48:52;;;;;;;0.10;0.10;;;;;;;4.68;69.78;100662.00;5031900;28;20068;-90
2021/11/29 03:51:19;;;;;;;0.20;0.20;;;;;;;4.67;69.59;100653.25;5032025;28;20033;-92
2021/11/29 03:53:45;;;;;;;0.20;0.20;;;;;;;4.71;69.42;100651.50;5039053;28;20068;-91
2021/11/29 03:56:11;;;;;;;0.13;0.13;;;;;;;4.73;69.30;100660.25;5036451;28;20484;-90
2021/11/29 03:58:38;;;;;;;0.20;0.20;;;;;;;4.73;69.58;100664.63;5039410;28;20495;-90
2021/11/29 04:01:04;;;;;;;0.20;0.20;;;;;;;4.75;69.00;100658.50;5035440;28;20029;-89
2021/11/29 04:03:32;;;;;;;0.20;0.20;;;;;;;4.75;69.19;100653.25;5031599;28;20033;-91
2021/11/29 04:05:58;;;;;;;0.20;0.20;;;;;;;4.73;69.28;100649.75;5016400;28;20028;-89
2021/11/29 04:08:25;;;;;;;0.20;0.20;;;;;;;4.72;68.98;100662.88;5029976;28;20021;-91
2021/11/29 04:10:53;;;;;;;0.10;0.10;;;;;;;4.69;68.90;100650.63;5034172;28;20029;-90
2021/11/29 04:13:20;;;;;;;0.20;0.20;;;;;;;4.71;68.91;100656.75;5026280;28;20477;-96
2021/11/29 04:15:46;;;;;;;0.17;0.17;;;;;;;4.75;68.89;100653.25;5033920;28;20045;-89
2021/11/29 04:18:12;;;;;;;0.13;0.13;;;;;;;4.73;68.98;100655.00;5033754;28;20025;-90
2021/11/29 04:20:38;;;;;;;0.20;0.20;;;;;;;4.74;68.41;100661.13;5034010;28;20021;-90
2021/11/29 04:23:05;;;;;;;0.20;0.20;;;;;;;4.71;68.48;100659.38;5033365;28;20037;-89
2021/11/29 04:25:40;;;;;;;0.17;0.17;;;;;;;4.72;68.62;100658.50;5033663;28;20536;-90
2021/11/29 04:28:06;;;;;;;0.20;0.20;;;;;;;4.69;68.69;100658.50;5032666;28;20038;-91
2021/11/29 04:30:34;;;;;;;0.20;0.20;;;;;;;4.70;68.21;100658.50;5031752;28;20370;-88
2021/11/29 04:33:00;;;;;;;0.20;0.20;;;;;;;4.74;67.92;100666.38;5033855;28;20080;-90
2021/11/29 04:35:27;;;;;;;0.20;0.20;;;;;;;4.75;68.40;100683.88;5027447;28;20034;-90
2021/11/29 04:37:54;;;;;;;0.13;0.13;;;;;;;4.81;68.03;100690.00;5033624;28;20088;-85
2021/11/29 04:40:20;;;;;;;0.20;0.20;;;;;;;4.82;68.28;100699.66;5033540;28;20465;-91
2021/11/29 04:42:46;;;;;;;0.17;0.17;;;;;;;4.85;68.19;100706.66;5033459;28;20088;-89
2021/11/29 04:45:12;;;;;;;0.20;0.20;;;;;;;4.74;68.38;100716.25;5033364;28;20025;-92
2021/11/29 04:47:39;;;;;;;0.20;0.20;;;;;;;4.80;68.47;100725.00;5033154;28;20030;-84
2021/11/29 04:50:07;;;;;;;0.10;0.10;;;;;;;4.93;68.30;100725.03;5032731;28;20033;-91
2021/11/29 04:52:34;;;;;;;0.15;0.15;;;;;;;5.01;68.29;100723.31;5009781;28;20025;-89
2021/11/29 04:55:00;;;;;;;0.10;0.10;;;;;;;5.12;68.08;100702.28;5032306;28;20029;-92
2021/11/29 04:57:26;;;;;;;0.20;0.20;;;;;;;5.15;68.09;100678.66;5025384;28;20499;-92
2021/11/29 04:59:54;;;;;;;0.20;0.20;;;;;;;5.23;68.12;100666.38;5030333;28;20037;-93
2021/11/29 05:02:21;;;;;;;0.20;0.20;;;;;;;5.26;67.98;100676.00;5031759;28;20421;-91
2021/11/29 05:04:47;;;;;;;0.20;0.20;;;;;;;5.24;68.20;100677.78;5029363;28;20704;-89
2021/11/29 05:07:15;;;;;;;0.20;0.20;;;;;;;5.19;68.11;100676.00;5033010;28;20033;-92
2021/11/29 05:09:42;;;;;;;0.20;0.20;;;;;;;5.16;67.75;100681.28;5028687;28;20785;-90
2021/11/29 05:12:10;;;;;;;0.20;0.20;;;;;;;5.08;67.99;100677.75;5033094;28;20033;-91
2021/11/29 05:14:36;;;;;;;0.10;0.10;;;;;;;5.05;67.76;100677.78;5032023;28;20037;-92
2021/11/29 05:17:03;;;;;;;0.20;0.20;;;;;;;5.04;67.55;100689.16;5031289;28;20495;-92
2021/11/29 05:19:29;;;;;;;0.20;0.20;;;;;;;4.98;67.22;100694.41;5032401;28;20075;-91
2021/11/29 05:21:55;;;;;;;0.20;0.20;;;;;;;4.97;67.64;100690.00;5030877;28;20109;-90
2021/11/29 05:24:21;;;;;;;0.10;0.10;;;;;;;4.95;67.62;100704.91;5028525;28;20034;-88
2021/11/29 05:26:47;;;;;;;0.20;0.20;;;;;;;4.90;67.35;100706.63;5033210;28;20092;-91
2021/11/29 05:29:15;;;;;;;0.20;0.20;;;;;;;4.85;66.92;100714.53;5030230;28;20809;-92
2021/11/29 05:31:42;;;;;;;0.10;0.10;;;;;;;4.81;67.18;100723.25;5024979;28;20029;-91
2021/11/29 05:34:09;;;;;;;0.20;0.20;;;;;;;4.70;67.54;100721.47;5032457;28;20400;-92
2021/11/29 05:36:35;;;;;;;0.20;0.20;;;;;;;4.64;67.61;100721.47;5032546;28;20055;-91
2021/11/29 05:39:02;;;;;;;0.20;0.20;;;;;;;4.63;67.42;100727.59;5032349;28;20544;-91
2021/11/29 05:41:28;;;;;;;0.20;0.20;;;;;;;4.58;67.66;100723.22;5032463;28;20029;-90
2021/11/29 05:43:54;;;;;;;0.22;0.22;;;;;;;4.65;67.58;100730.25;5031530;28;20451;-90
2021/11/29 05:46:22;;;;;;;0.20;0.20;;;;;;;4.61;67.53;100744.19;5025246;28;20033;-90
2021/11/29 05:48:50;;;;;;;0.10;0.10;;;;;;;4.58;67.97;100754.69;5028803;28;20045;-90
2021/11/29 05:51:17;;;;;;;0.20;0.20;;;;;;;4.54;67.68;100759.94;5031614;28;20033;-89
2021/11/29 05:53:43;;;;;;;0.10;0.10;;;;;;;4.49;67.67;100772.16;5032232;28;20040;-90
2021/11/29 05:56:10;;;;;;;0.20;0.20;;;;;;;4.47;67.64;100758.16;5032043;28;20040;-91
2021/11/29 05:58:36;;;;;;;0.20;0.20;;;;;;;4.70;67.72;100760.00;5032215;28;20377;-89
2021/11/29 06:01:04;;;;;;;0.20;0.20;;;;;;;4.77;67.05;100751.28;5032106;28;20547;-90
2021/11/29 06:03:30;;;;;;;0.20;0.20;;;;;;;4.85;67.38;100759.16;5025226;28;20116;-91
2021/11/29 06:05:57;;;;;;;0.10;0.10;;;;;;;4.90;67.60;100746.91;5028232;28;20029;-89
2021/11/29 06:08:23;;;;;;;0.20;0.20;;;;;;;4.98;66.89;100741.66;5026098;28;20029;-90
2021/11/29 06:10:49;;;;;;;0.20;0.20;;;;;;;5.00;67.34;100745.19;5027763;28;20037;-90
2021/11/29 06:13:16;;;;;;;0.20;0.20;;;;;;;5.02;67.55;100751.28;5029117;28;20040;-89
2021/11/29 06:15:43;;;;;;;0.20;0.20;;;;;;;5.11;66.58;100761.81;5027302;28;20033;-87
2021/11/29 06:18:09;;;;;;;0.20;0.20;;;;;;;5.17;66.94;100772.34;5029264;28;20036;-88
2021/11/29 06:20:35;;;;;;;0.20;0.20;;;;;;;5.22;67.15;100779.34;5028893;28;20039;-90
2021/11/29 06:23:02;;;;;;;0.10;0.10;;;;;;;5.28;67.11;100789.84;5026101;28;20136;-90
2021/11/29 06:25:29;;;;;;;0.20;0.20;;;;;;;5.31;67.05;100795.13;5026653;28;20028;-91
2021/11/29 06:27:55;;;;;;;0.20;0.20;;;;;;;5.34;67.08;100797.72;5030107;28;20029;-90
2021/11/29 06:30:23;;;;;;;0.20;0.20;;;;;;;5.39;67.60;100798.59;5030193;28;20075;-92
2021/11/29 06:32:50;;;;;;;0.13;0.13;;;;;;;5.42;67.76;100792.47;5027247;28;20393;-92
2021/11/29 06:35:17;;;;;;;0.20;0.20;;;;;;;5.47;67.59;100791.63;5024855;28;20457;-92
2021/11/29 06:37:47;;;;;;;0.10;0.10;;;;;;;5.55;68.09;100791.59;5027120;28;20032;-92
2021/11/29 06:40:14;;;;;;;0.20;0.20;;;;;;;5.54;67.84;100791.63;5027841;28;20045;-91
2021/11/29 06:42:40;;;;;;;0.10;0.10;;;;;;;5.54;67.83;100789.00;5031772;28;20035;-91
2021/11/29 06:45:06;;;;;;;0.20;0.20;;;;;;;5.46;67.62;100789.84;5030724;28;20052;-90
2021/11/29 06:47:32;;;;;;;0.20;0.20;;;;;;;5.50;67.77;100790.75;5031337;28;20045;-89
2021/11/29 06:49:58;;;;;;;0.10;0.10;;;;;;;5.51;67.42;100785.47;5031451;28;20032;-90
2021/11/29 06:52:24;;;;;;;0.10;0.10;;;;;;;5.50;67.51;100791.59;5031132;28;20034;-89
2021/11/29 06:54:51;;;;;;;0.20;0.20;;;;;;;5.50;67.48;100794.22;5031179;28;20041;-85
2021/11/29 06:57:19;;;;;;;0.20;0.20;;;;;;;5.56;67.68;100806.50;5026594;28;20030;-90
2021/11/29 06:59:46;;;;;;;0.20;0.20;;;;;;;5.57;67.55;100802.13;5026740;28;20050;-88
2021/11/29 07:02:14;;;;;;;0.20;0.20;;;;;;;5.61;67.62;100803.88;5026721;28;20025;-91
2021/11/29 07:04:40;;;;;;;0.20;0.20;;;;;;;5.62;67.62;100803.88;5028751;28;20103;-90
2021/11/29 07:07:06;;;;;;;0.20;0.20;;;;;;;5.65;67.69;100814.38;5019126;28;20037;-90
2021/11/29 07:09:33;;;;;;;0.20;0.20;;;;;;;5.69;67.70;100843.31;5029451;28;20031;-89
2021/11/29 07:11:59;;;;;;;0.20;0.20;;;;;;;5.57;68.48;100828.41;5020285;28;20026;-89
2021/11/29 07:14:27;;;;;;;0.15;0.15;;;;;;;5.66;68.62;100823.16;5030667;28;20030;-88
2021/11/29 07:16:54;;;;;;;0.10;0.10;;;;;;;5.66;68.61;100815.28;5021941;28;20041;-90
2021/11/29 07:19:20;;;;;;;0.10;0.10;;;;;;;5.74;68.69;100810.88;5022861;28;20034;-91
2021/11/29 07:21:46;;;;;;;0.10;0.10;;;;;;;5.76;68.66;100795.97;5031351;28;20061;-88
2021/11/29 07:24:13;;;;;;;0.20;0.20;;;;;;;5.83;68.58;100795.09;5030692;28;20432;-90
2021/11/29 07:26:43;;;;;;;0.13;0.13;;;;;;;5.86;68.37;100803.84;5026267;28;20030;-91
2021/11/29 07:29:09;;;;;;;0.20;0.20;;;;;;;5.96;68.01;100810.88;5020124;28;20029;-93
2021/11/29 07:31:37;;;;;;;0.10;0.10;;;;;;;6.01;68.32;100809.13;5024535;28;20037;-93
2021/11/29 07:34:03;;;;;;;0.20;0.20;;;;;;;6.07;68.08;100827.53;5026938;28;20029;-90
2021/11/29 07:36:29;;;;;;;0.55;0.55;;;;;;;6.11;68.00;100826.63;5024991;28;20060;-90
2021/11/29 07:38:55;;;;;;;0.10;0.10;;;;;;;6.07;68.32;100830.16;5020307;28;20030;-92
2021/11/29 07:41:21;;;;;;;0.10;0.10;;;;;;;6.16;68.29;100850.31;5030315;28;20397;-93
2021/11/29 07:43:47;;;;;;;0.10;0.10;;;;;;;6.19;68.16;100845.03;5030707;28;20034;-90
2021/11/29 07:46:14;;;;;;;0.20;0.20;;;;;;;6.22;68.23;100844.16;5026045;28;20061;-92
2021/11/29 07:48:40;;;;;;;0.20;0.20;;;;;;;6.24;68.40;100852.94;5022917;28;20088;-91
2021/11/29 07:51:06;;;;;;;0.10;0.10;;;;;;;6.23;68.69;100856.44;5021805;28;20037;-91
2021/11/29 07:53:32;;;;;;;0.17;0.17;;;;;;;6.26;68.54;100867.84;5026680;28;20045;-89
2021/11/29 07:55:58;;;;;;;0.10;0.10;;;;;;;6.26;68.75;100872.22;5027303;28;20025;-90
2021/11/29 07:58:25;;;;;;;0.20;0.20;;;;;;;6.29;68.70;100877.47;5028415;28;20515;-92
2021/11/29 08:00:52;;;;;;;0.20;0.20;;;;;;;6.30;68.24;100873.97;5023018;28;20034;-90
2021/11/29 08:03:18;;;;;;;0.10;0.10;;;;;;;6.25;68.74;100870.47;5026504;28;20428;-89
2021/11/29 08:05:45;;;;;;;0.20;0.20;;;;;;;6.26;68.75;100861.69;5031212;28;20139;-87
2021/11/29 08:08:11;;;;;;;0.20;0.20;;;;;;;6.28;68.87;100866.09;5022477;28;20061;-88
2021/11/29 08:10:38;;;;;;;0.20;0.20;;;;;;;6.22;69.23;100866.09;5024644;28;20037;-88
2021/11/29 08:13:08;;;;;;;0.20;0.20;;;;;;;6.25;69.17;100873.97;5029909;28;20103;-87
2021/11/29 08:15:37;;;;;;;0.20;0.20;;;;;;;6.29;69.43;100872.22;5020402;28;20432;-91
2021/11/29 08:18:05;;;;;;;0.10;0.10;;;;;;;6.17;69.44;100862.59;5029858;28;20037;-90
2021/11/29 08:20:32;;;;;;;0.20;0.20;;;;;;;6.37;69.05;100862.56;5028481;28;20041;-90
2021/11/29 08:22:58;;;;;;;0.10;0.10;;;;;;;6.44;68.92;100866.03;5028291;28;20072;-88
2021/11/29 08:25:24;;;;;;;0.10;0.10;;;;;;;6.48;68.76;100880.97;5025793;28;20396;-91
2021/11/29 08:27:51;;;;;;;0.28;0.28;;;;;;;6.52;68.81;100866.00;5025462;28;20091;-90
2021/11/29 08:30:21;;;;;;;1.88;1.75;;;;;;;6.51;68.78;100869.53;5026941;28;20077;-91
2021/11/29 08:32:52;;;;;;;0.20;0.20;;;;;;;6.48;68.19;100873.06;5022794;28;20046;-90
2021/11/29 08:35:20;;;;;;;0.20;0.20;;;;;;;6.56;68.15;100883.56;5025199;28;20540;-91
2021/11/29 08:37:49;;;;;;;0.47;0.47;;;;;;;6.62;67.71;100876.50;5027992;28;20428;-86
2021/11/29 08:40:18;;;;;;;0.20;0.20;;;;;;;6.70;67.63;100868.59;5024305;28;20535;-91
2021/11/29 08:42:44;;;;;;;0.10;0.10;;;;;;;6.70;67.49;100873.84;5028229;28;20057;-89
2021/11/29 08:45:10;;;;;;;0.20;0.20;;;;;;;6.64;66.41;100889.66;5025399;28;20030;-90
2021/11/29 08:47:37;;;;;;;0.20;0.20;;;;;;;6.78;67.08;100893.16;5025988;28;20044;-90
2021/11/29 08:50:04;;;;;;;0.13;0.13;;;;;;;6.78;66.64;100879.97;5027091;28;20037;-92
2021/11/29 08:52:33;;;;;;;0.10;0.10;;;;;;;6.96;66.76;100900.09;5027822;28;20045;-92
2021/11/29 08:55:01;;;;;;;0.10;0.10;;;;;;;7.09;66.20;100897.41;5026419;28;20022;-91
2021/11/29 08:57:27;;;;;;;0.10;0.10;;;;;;;7.20;66.35;100910.53;5027674;28;20366;-91
2021/11/29 08:59:53;;;;;;;0.20;0.20;;;;;;;7.25;66.28;100914.00;5025332;28;20065;-87
2021/11/29 09:02:20;;;;;;;0.20;0.20;;;;;;;7.25;66.43;100929.81;5028199;28;20151;-91
2021/11/29 09:04:46;;;;;;;0.22;0.22;;;;;;;7.14;67.10;100937.81;5023162;28;20057;-88
2021/11/29 09:07:12;;;;;;;0.20;0.20;;;;;;;7.26;66.85;100953.56;5023173;28;20377;-89
2021/11/29 09:09:38;;;;;;;0.17;0.17;;;;;;;7.28;66.75;100956.19;5019058;28;20030;-89
2021/11/29 09:12:05;;;;;;;0.20;0.20;;;;;;;7.13;67.38;100951.84;5025382;28;20095;-89
2021/11/29 09:14:31;;;;;;;0.20;0.20;;;;;;;7.07;67.45;100952.75;5026953;28;20025;-87
2021/11/29 09:16:57;;;;;;;0.20;0.20;;;;;;;7.05;67.86;100948.34;5024088;28;20128;-92
2021/11/29 09:19:25;;;;;;;0.20;0.20;;;;;;;7.01;68.32;100955.41;5028129;28;20034;-91
2021/11/29 09:21:52;;;;;;;0.20;0.20;;;;;;;7.04;68.00;100959.78;5025011;28;20025;-93
2021/11/29 09:24:19;;;;;;;0.10;0.10;;;;;;;7.06;68.04;100956.25;5027226;28;20180;-92
2021/11/29 09:26:45;;;;;;;0.25;0.25;;;;;;;7.09;67.74;100958.88;5029233;28;20110;-92
2021/11/29 09:29:12;;;;;;;0.20;0.20;;;;;;;7.09;68.40;100953.63;5032034;28;20091;-92
2021/11/29 09:31:38;;;;;;;0.20;0.20;;;;;;;7.12;68.01;100963.28;5028546;28;20041;-91
2021/11/29 09:34:04;;;;;;;0.17;0.17;;;;;;;7.15;68.12;100970.28;5031224;28;20037;-89
2021/11/29 09:36:30;;;;;;;0.10;0.10;;;;;;;7.12;68.34;100969.41;5029447;28;20048;-89
2021/11/29 09:38:56;;;;;;;0.20;0.20;;;;;;;7.17;68.25;100974.66;5025359;28;20116;-88
2021/11/29 09:41:24;;;;;;;0.85;0.85;;;;;;;7.25;68.38;100972.00;5024429;28;20113;-89
2021/11/29 09:43:52;;;;;;;0.20;0.20;;;;;;;7.32;68.39;100971.09;5023360;28;20171;-87
2021/11/29 09:46:18;;;;;;;0.20;0.20;;;;;;;7.39;68.54;100978.09;5020372;28;20045;-91
2021/11/29 09:48:45;;;;;;;0.13;0.13;;;;;;;7.51;68.39;100981.53;5022556;28;20436;-91
2021/11/29 09:51:11;;;;;;;0.10;0.10;;;;;;;7.47;67.98;100990.38;5022219;28;20048;-90
2021/11/29 09:53:38;;;;;;;0.20;0.20;;;;;;;7.39;68.12;100988.63;5024307;28;20495;-91
2021/11/29 09:56:07;;;;;;;0.20;0.20;;;;;;;7.40;67.93;100992.13;5027992;28;20469;-90
2021/11/29 09:58:34;;;;;;;0.20;0.20;;;;;;;7.33;68.10;100988.66;5027433;28;20068;-83
2021/11/29 10:01:03;;;;;;;0.20;0.20;;;;;;;7.20;68.05;100987.84;5026888;28;20058;-89
2021/11/29 10:03:29;;;;;;;0.20;0.20;;;;;;;7.17;68.06;100994.88;5022876;28;20100;-89
2021/11/29 10:05:56;;;;;;;0.20;0.20;;;;;;;7.28;68.19;100996.56;5021152;28;20029;-89
2021/11/29 10:11:12;;;;;;;0.17;0.17;;;;;;;7.20;68.57;100990.47;5063608;28;20917;-90
2021/11/29 10:14:02;;;;;;;0.20;0.20;;;;;;;7.37;68.26;100993.03;5041858;28;20594;-89
2021/11/29 10:16:32;;;;;;;0.20;0.20;;;;;;;7.34;68.28;100993.06;5029006;28;20045;-83
2021/11/29 10:18:59;;;;;;;1.52;1.45;;;;;;;7.30;68.19;100996.56;5009115;28;20022;-85
2021/11/29 10:21:25;;;;;;;0.10;0.10;;;;;;;7.30;68.08;100999.19;5008721;28;20041;-85
2021/11/29 10:23:54;;;;;;;0.20;0.20;;;;;;;7.40;68.30;100995.66;5009816;28;20169;-84
2021/11/29 10:26:28;;;;;;;0.20;0.20;;;;;;;7.47;68.82;100993.00;5008532;28;20057;-84
2021/11/29 10:28:59;;;;;;;4.15;1.25;;;;;;;7.64;68.93;101003.44;5007487;28;20034;-82
2021/11/29 10:31:32;;;;;;;0.10;0.10;;;;;;;7.80;68.94;100993.69;5022765;28;20064;-82
2021/11/29 10:34:03;;;;;;;0.17;0.17;;;;;;;7.86;68.70;101006.84;5018189;28;20026;-82
2021/11/29 10:36:33;;;;;;;0.15;0.15;;;;;;;7.89;68.17;101012.97;5024600;28;20522;-82
2021/11/29 10:39:04;;;;;;;0.10;0.10;;;;;;;7.88;68.50;101010.34;5018766;28;20487;-83
2021/11/29 10:41:35;;;;;;;0.20;0.20;;;;;;;7.71;67.94;101013.97;5010468;28;20521;-84
2021/11/29 10:44:04;;;;;;;0.20;0.20;;;;;;;7.68;67.51;101016.63;5017483;28;20031;-84
2021/11/29 10:49:13;;;;;;;0.10;0.10;;;;;;;7.45;67.92;101007.06;5047404;28;20411;-84
2021/11/29 10:51:42;;;;;;;0.10;0.10;;;;;;;7.33;67.50;101012.38;5043310;28;20029;-85
2021/11/29 10:54:15;;;;;;;0.10;0.10;;;;;;;7.27;67.98;101021.19;5044039;28;20029;-84
2021/11/29 10:56:43;;;;;;;0.10;0.10;;;;;;;7.33;68.28;101020.28;5034750;28;20037;-83
2021/11/29 10:59:12;;;;;;;0.20;0.20;;;;;;;7.32;68.17;101021.16;5008454;28;20532;-84
2021/11/29 11:01:46;;;;;;;0.10;0.10;;;;;;;7.35;67.75;101020.28;5010981;28;20605;-84
2021/11/29 11:04:15;;;;;;;0.20;0.20;;;;;;;7.38;67.84;101025.56;5009511;28;20105;-84
2021/11/29 11:06:45;;;;;;;0.20;0.20;;;;;;;7.42;67.81;101024.66;5009223;28;20097;-87
2021/11/29 11:09:14;;;;;;;0.20;0.20;;;;;;;7.41;67.93;101018.50;5010201;28;20057;-87
2021/11/29 11:11:45;;;;;;;0.15;0.15;;;;;;;7.49;67.57;101030.75;5017955;28;20026;-84
2021/11/29 11:14:30;;;;;;;0.30;0.30;;;;;;;7.51;67.50;101029.00;5011179;28;20046;-84
2021/11/29 11:17:00;;;;;;;0.20;0.20;;;;;;;7.54;67.80;101037.78;5015797;28;20556;-85
2021/11/29 11:19:31;;;;;;;0.20;0.20;;;;;;;7.68;68.37;101042.97;5022843;28;20481;-84
2021/11/29 11:22:00;;;;;;;0.10;0.10;;;;;;;7.61;68.15;101042.16;5018812;28;20030;-84
2021/11/29 11:27:12;;;;;;;0.20;0.20;;;;;;;7.55;68.49;101047.44;5058212;27;20410;-83
2021/11/29 11:35:15;;;;;;;0.10;0.10;;;;;;;7.35;67.57;101047.53;5064192;28;20458;-83
2021/11/29 11:37:44;;;;;;;0.10;0.10;;;;;;;7.37;67.39;101037.84;5046090;28;20558;-82
2021/11/29 11:40:14;;;;;;;0.20;0.20;;;;;;;7.33;67.40;101030.84;5032204;28;20022;-84
2021/11/29 11:42:41;;;;;;;0.30;0.30;;;;;;;7.31;67.35;101039.63;5032070;28;20129;-84
2021/11/29 11:45:12;;;;;;;0.13;0.13;;;;;;;7.37;67.08;101034.34;5028574;28;20036;-85
2021/11/29 11:47:39;;;;;;;0.57;0.57;;;;;;;7.36;67.59;101038.72;5028809;28;20029;-86
2021/11/29 11:50:08;;;;;;;0.10;0.10;;;;;;;7.39;67.60;101046.63;5036566;28;20034;-84
2021/11/29 11:52:34;;;;;;;0.10;0.10;;;;;;;7.40;67.54;101045.75;5040690;28;20025;-84